Time;durP1;ratioP1;P1;durP2;ratioP2;P2;SDS_P1;SDS_P2;PMS_P1;PMS_P2;Temp;Humidity;BMP_temperature;BMP_pressure;BME280_temperature;BME280_humidity;BME280_pressure;Samples;Min_cycle;Max_cycle;Signal;HPM_P1;HPM_P2
2021/10/30 00:00:49;;;;;;;94.38;20.95;;;;;;;6.75;81.05;99834.59;5039461;28;20417;-77
2021/10/30 00:03:14;;;;;;;157.85;22.95;;;;;;;6.71;81.16;99835.31;5044739;28;20407;-77
2021/10/30 00:12:23;;;;;;;111.13;19.45;;;;;;;6.51;81.58;99826.75;5039748;28;20394;-77
2021/10/30 00:14:49;;;;;;;99.57;19.57;;;;;;;6.47;81.41;99817.50;5041273;28;20405;-77
2021/10/30 00:17:14;;;;;;;46.73;19.83;;;;;;;6.44;81.27;99816.13;5037059;28;20415;-76
2021/10/30 00:19:40;;;;;;;59.80;19.43;;;;;;;6.40;82.01;99812.25;5041035;28;20413;-77
2021/10/30 00:22:06;;;;;;;43.07;17.27;;;;;;;6.39;81.46;99799.84;5040470;28;20403;-76
2021/10/30 00:24:32;;;;;;;52.20;18.33;;;;;;;6.35;81.53;99797.84;5049365;28;20398;-77
2021/10/30 00:26:58;;;;;;;81.57;18.00;;;;;;;6.36;81.69;99792.22;5035450;28;20482;-77
2021/10/30 00:29:23;;;;;;;85.63;19.25;;;;;;;6.36;81.07;99797.59;5044088;28;20512;-77
2021/10/30 00:31:48;;;;;;;105.87;20.93;;;;;;;6.36;81.21;99784.16;5041207;28;20419;-77
2021/10/30 00:34:14;;;;;;;112.37;20.13;;;;;;;6.35;81.37;99785.22;5050082;28;20729;-76
2021/10/30 00:36:39;;;;;;;40.80;17.33;;;;;;;6.35;81.69;99787.09;5036139;28;20499;-76
2021/10/30 00:39:04;;;;;;;17.60;14.50;;;;;;;6.36;82.07;99796.78;5043073;28;20477;-76
2021/10/30 00:41:30;;;;;;;27.27;16.47;;;;;;;6.35;82.18;99805.94;5035970;28;20442;-77
2021/10/30 00:43:55;;;;;;;22.03;18.10;;;;;;;6.32;82.49;99791.09;5043311;28;20439;-77
2021/10/30 00:46:21;;;;;;;26.40;17.80;;;;;;;6.34;82.28;99793.53;5022601;28;20415;-77
2021/10/30 00:48:46;;;;;;;23.50;18.57;;;;;;;6.36;82.55;99789.53;5035256;28;20411;-77
2021/10/30 00:51:13;;;;;;;19.93;16.13;;;;;;;6.37;81.98;99793.88;5033240;28;20415;-77
2021/10/30 00:53:38;;;;;;;24.15;15.27;;;;;;;6.33;82.23;99789.19;5047119;28;20768;-77
2021/10/30 00:56:05;;;;;;;57.50;16.10;;;;;;;6.36;81.87;99791.41;5033740;28;20415;-76
2021/10/30 00:58:36;;;;;;;75.50;18.42;;;;;;;6.38;81.83;99783.94;5018241;28;20410;-76
2021/10/30 01:01:04;;;;;;;52.72;16.80;;;;;;;6.38;82.53;99782.06;5044093;28;21012;-77
2021/10/30 01:03:31;;;;;;;24.83;15.20;;;;;;;6.42;82.75;99793.97;5040942;28;20968;-76
2021/10/30 01:05:57;;;;;;;68.80;17.60;;;;;;;6.46;83.08;99781.69;5048152;28;20448;-77
2021/10/30 01:08:22;;;;;;;86.55;19.13;;;;;;;6.48;83.08;99774.22;5038615;28;20409;-77
2021/10/30 01:10:48;;;;;;;29.50;16.27;;;;;;;6.49;83.07;99767.78;5039294;28;20554;-77
2021/10/30 01:13:14;;;;;;;145.50;21.17;;;;;;;6.52;83.25;99769.19;5044631;28;20405;-76
2021/10/30 01:15:40;;;;;;;165.77;22.80;;;;;;;6.49;83.29;99767.78;5036459;28;20451;-76
2021/10/30 01:18:06;;;;;;;147.63;20.63;;;;;;;6.46;84.00;99764.72;5033495;28;20462;-76
2021/10/30 01:20:31;;;;;;;56.60;17.67;;;;;;;6.45;84.24;99773.88;5037004;28;20396;-77
2021/10/30 01:22:58;;;;;;;83.17;18.60;;;;;;;6.48;84.56;99760.78;5038189;28;20408;-76
2021/10/30 01:25:23;;;;;;;70.40;19.02;;;;;;;6.50;83.86;99758.66;5022952;28;20407;-76
2021/10/30 01:27:50;;;;;;;61.50;17.33;;;;;;;6.57;83.72;99756.66;5034198;28;20931;-76
2021/10/30 01:30:17;;;;;;;94.22;16.75;;;;;;;6.61;83.97;99767.78;5036379;28;20482;-77
2021/10/30 01:32:58;;;;;;;62.10;16.77;;;;;;;6.61;83.54;99759.69;5036084;28;20407;-77
2021/10/30 01:35:29;;;;;;;105.13;21.52;;;;;;;6.64;83.34;99762.75;5040367;28;20891;-77
2021/10/30 01:37:55;;;;;;;105.22;19.70;;;;;;;6.65;82.85;99760.88;5030143;28;20937;-76
2021/10/30 01:40:22;;;;;;;42.13;17.15;;;;;;;6.65;83.68;99761.66;5044027;28;20991;-76
2021/10/30 01:42:55;;;;;;;91.05;19.38;;;;;;;6.61;83.42;99767.78;5032228;28;20415;-76
2021/10/30 01:45:20;;;;;;;72.90;17.73;;;;;;;6.59;83.79;99756.41;5037367;28;20448;-76
2021/10/30 01:47:46;;;;;;;49.40;18.02;;;;;;;6.57;83.60;99748.59;5041178;28;20398;-77
2021/10/30 01:50:15;;;;;;;43.70;17.60;;;;;;;6.55;83.69;99741.81;5036884;28;20777;-77
2021/10/30 01:52:41;;;;;;;84.18;18.52;;;;;;;6.59;83.69;99740.25;5034178;28;20878;-77
2021/10/30 01:55:12;;;;;;;65.27;17.80;;;;;;;6.61;83.68;99730.09;5017973;28;20418;-76
2021/10/30 01:57:37;;;;;;;31.85;16.23;;;;;;;6.60;83.59;99739.22;5037736;28;20417;-77
2021/10/30 02:00:05;;;;;;;103.23;21.20;;;;;;;6.57;83.58;99745.88;5031908;28;20771;-77
2021/10/30 02:02:30;;;;;;;99.43;18.02;;;;;;;6.55;82.83;99728.34;5030049;28;20403;-77
2021/10/30 02:04:55;;;;;;;84.50;17.53;;;;;;;6.52;82.72;99736.91;5042401;28;20915;-77
2021/10/30 02:07:20;;;;;;;77.40;18.13;;;;;;;6.50;82.39;99736.28;5037339;28;20412;-76
2021/10/30 02:09:46;;;;;;;94.60;17.02;;;;;;;6.47;82.30;99734.06;5048885;28;20389;-76
2021/10/30 02:12:11;;;;;;;74.40;16.13;;;;;;;6.43;81.91;99733.72;5023530;28;20462;-77
2021/10/30 02:14:36;;;;;;;63.30;17.17;;;;;;;6.39;82.25;99718.31;5040040;28;20407;-77
2021/10/30 02:17:02;;;;;;;80.80;16.30;;;;;;;6.36;81.82;99714.19;5036471;28;20424;-77
2021/10/30 02:19:27;;;;;;;109.40;19.73;;;;;;;6.34;82.15;99723.56;5039458;28;20423;-77
2021/10/30 02:21:52;;;;;;;47.97;15.80;;;;;;;6.31;82.58;99718.66;5039528;28;20814;-76
2021/10/30 02:24:17;;;;;;;139.40;18.63;;;;;;;6.28;82.44;99703.78;5033775;28;20421;-77
2021/10/30 02:26:43;;;;;;;109.33;17.87;;;;;;;6.26;82.61;99701.31;5035234;28;20948;-77
2021/10/30 02:29:08;;;;;;;88.47;17.05;;;;;;;6.24;82.53;99698.06;5014901;28;20407;-77
2021/10/30 02:31:33;;;;;;;57.63;16.83;;;;;;;6.21;83.30;99695.84;5035769;28;20466;-76
2021/10/30 02:33:58;;;;;;;84.70;16.77;;;;;;;6.15;82.75;99702.16;5042593;28;20442;-76
2021/10/30 02:36:24;;;;;;;63.60;16.40;;;;;;;6.14;83.11;99700.53;5032668;28;20494;-77
2021/10/30 02:38:50;;;;;;;59.77;17.20;;;;;;;6.17;82.54;99691.16;5044389;28;20421;-76
2021/10/30 02:41:15;;;;;;;69.60;17.50;;;;;;;6.16;82.89;99676.06;5014679;28;20419;-77
2021/10/30 02:43:41;;;;;;;33.60;15.77;;;;;;;6.14;82.73;99667.41;5031154;28;20465;-77
2021/10/30 02:46:06;;;;;;;42.10;15.55;;;;;;;6.14;82.39;99659.34;5039166;28;20821;-76
2021/10/30 02:48:32;;;;;;;24.63;14.63;;;;;;;6.14;82.40;99654.78;5048293;28;20400;-77
2021/10/30 02:50:57;;;;;;;42.40;15.07;;;;;;;6.14;82.54;99653.97;5039443;28;20413;-77
2021/10/30 02:53:22;;;;;;;26.57;15.20;;;;;;;6.12;83.00;99656.09;5042250;28;20411;-77
2021/10/30 02:55:48;;;;;;;34.22;15.05;;;;;;;6.14;82.75;99649.41;5032553;28;20413;-77
2021/10/30 02:58:13;;;;;;;54.57;16.27;;;;;;;6.13;82.32;99652.31;5026055;28;20520;-76
2021/10/30 03:00:39;;;;;;;57.97;17.73;;;;;;;6.16;83.31;99649.16;5032318;28;20421;-76
2021/10/30 03:03:04;;;;;;;40.58;16.30;;;;;;;6.21;82.94;99639.34;5039087;28;20442;-77
2021/10/30 03:05:30;;;;;;;42.93;16.97;;;;;;;6.23;83.07;99644.47;5031305;28;20496;-76
2021/10/30 03:07:55;;;;;;;21.20;15.43;;;;;;;6.25;82.65;99650.47;5033035;28;20432;-77
2021/10/30 03:10:21;;;;;;;47.63;15.93;;;;;;;6.22;82.62;99642.84;5021308;28;20411;-77
2021/10/30 03:12:48;;;;;;;61.30;16.30;;;;;;;6.20;82.78;99631.50;5020044;28;20418;-76
2021/10/30 03:15:15;;;;;;;39.28;15.98;;;;;;;6.15;82.96;99632.22;5039371;28;20815;-77
2021/10/30 03:17:40;;;;;;;89.93;16.77;;;;;;;6.13;82.71;99622.72;5038351;28;20430;-76
2021/10/30 03:20:07;;;;;;;70.80;16.85;;;;;;;6.13;82.92;99633.50;5043413;28;20425;-77
2021/10/30 03:22:33;;;;;;;97.25;18.60;;;;;;;6.12;82.69;99626.50;5039886;28;20405;-77
2021/10/30 03:24:58;;;;;;;64.32;16.95;;;;;;;6.15;83.14;99628.72;5052970;28;20407;-76
2021/10/30 03:27:24;;;;;;;81.20;18.10;;;;;;;6.19;82.72;99629.88;5020336;28;20767;-77
2021/10/30 03:29:49;;;;;;;111.50;20.13;;;;;;;6.21;82.96;99623.22;5044203;28;20451;-77
2021/10/30 03:32:15;;;;;;;91.57;19.13;;;;;;;6.22;83.75;99618.66;5041392;28;20426;-77
2021/10/30 03:34:40;;;;;;;123.93;21.00;;;;;;;6.22;83.79;99616.75;5035522;28;20480;-76
2021/10/30 03:37:06;;;;;;;173.83;22.43;;;;;;;6.19;83.59;99614.53;5039165;28;20843;-77
2021/10/30 03:39:32;;;;;;;65.50;19.00;;;;;;;6.20;83.93;99610.78;5043435;28;20828;-77
2021/10/30 03:41:57;;;;;;;37.40;16.80;;;;;;;6.23;84.09;99607.63;5043461;28;20418;-76
2021/10/30 03:44:22;;;;;;;216.83;24.63;;;;;;;6.25;83.89;99584.00;5035080;28;20767;-77
2021/10/30 03:46:48;;;;;;;165.68;24.50;;;;;;;6.23;83.79;99572.66;5032866;28;20456;-76
2021/10/30 03:49:13;;;;;;;61.13;20.07;;;;;;;6.25;84.62;99581.31;5035824;28;20414;-77
2021/10/30 03:51:38;;;;;;;105.33;20.40;;;;;;;6.27;84.15;99581.06;5035883;28;20407;-77
2021/10/30 03:54:04;;;;;;;202.10;25.45;;;;;;;6.26;83.90;99582.13;5034524;28;20417;-77
2021/10/30 03:56:29;;;;;;;130.13;23.17;;;;;;;6.26;84.72;99591.00;5018553;28;20934;-76
2021/10/30 03:58:55;;;;;;;64.10;19.17;;;;;;;6.28;84.74;99601.56;5015154;28;20488;-77
2021/10/30 04:01:20;;;;;;;139.97;22.60;;;;;;;6.24;84.23;99601.22;5036286;28;20409;-76
2021/10/30 04:03:45;;;;;;;103.15;22.38;;;;;;;6.22;83.90;99606.00;5035270;28;20474;-76
2021/10/30 04:06:11;;;;;;;85.70;20.90;;;;;;;6.21;84.21;99606.25;5015398;28;20558;-77
2021/10/30 04:08:36;;;;;;;55.27;19.57;;;;;;;6.24;84.41;99611.97;5030932;28;20488;-76
2021/10/30 04:11:01;;;;;;;94.07;21.00;;;;;;;6.30;84.51;99601.28;5048662;28;20762;-76
2021/10/30 04:13:27;;;;;;;164.27;25.03;;;;;;;6.29;84.54;99592.41;5034171;28;20773;-77
2021/10/30 04:15:52;;;;;;;92.87;21.50;;;;;;;6.31;84.28;99592.19;5032901;28;20910;-77
2021/10/30 04:18:17;;;;;;;72.20;20.17;;;;;;;6.30;84.89;99591.34;5036032;28;20801;-77
2021/10/30 04:20:43;;;;;;;70.17;19.77;;;;;;;6.34;84.77;99597.91;5032464;28;20418;-76
2021/10/30 04:23:08;;;;;;;108.73;22.90;;;;;;;6.35;84.29;99596.03;5036088;28;20501;-76
2021/10/30 04:25:33;;;;;;;127.43;26.70;;;;;;;6.36;84.17;99587.72;5036010;28;20409;-77
2021/10/30 04:27:58;;;;;;;138.80;25.23;;;;;;;6.39;84.16;99592.59;5034814;28;20417;-76
2021/10/30 04:30:24;;;;;;;124.67;24.90;;;;;;;6.42;84.31;99591.34;5031855;28;20413;-76
2021/10/30 04:32:50;;;;;;;126.40;22.77;;;;;;;6.37;83.91;99578.59;5034819;28;20538;-77
2021/10/30 04:35:15;;;;;;;132.93;23.20;;;;;;;6.32;83.27;99573.13;5031059;28;20451;-76
2021/10/30 04:37:40;;;;;;;110.83;21.33;;;;;;;6.29;83.50;99567.41;5038398;28;20908;-76
2021/10/30 04:40:07;;;;;;;107.83;21.60;;;;;;;6.25;83.78;99565.19;5039528;28;20460;-77
2021/10/30 04:42:32;;;;;;;167.90;24.03;;;;;;;6.20;83.47;99554.31;5033086;28;20413;-77
2021/10/30 04:44:57;;;;;;;85.13;20.07;;;;;;;6.13;83.47;99545.53;5036821;28;20411;-76
2021/10/30 04:47:24;;;;;;;109.57;22.17;;;;;;;6.07;83.91;99533.06;5043987;28;20417;-76
2021/10/30 04:49:52;;;;;;;123.22;21.90;;;;;;;6.04;84.60;99527.31;5039101;28;20895;-77
2021/10/30 04:52:17;;;;;;;102.55;20.48;;;;;;;6.05;84.90;99531.66;5042986;28;20548;-76
2021/10/30 04:54:43;;;;;;;96.10;20.42;;;;;;;6.04;85.04;99533.53;5042272;28;20484;-77
2021/10/30 04:57:08;;;;;;;96.35;20.15;;;;;;;6.05;84.27;99523.59;5039361;28;20530;-76
2021/10/30 04:59:34;;;;;;;67.43;19.10;;;;;;;6.01;84.02;99512.50;5037845;28;20401;-77
2021/10/30 05:02:00;;;;;;;79.37;17.60;;;;;;;5.96;83.11;99504.31;5035319;28;20430;-76
2021/10/30 05:04:25;;;;;;;70.90;15.63;;;;;;;5.89;83.11;99511.72;5046454;28;20413;-77
2021/10/30 05:06:51;;;;;;;29.52;15.00;;;;;;;5.85;83.20;99509.69;5043683;28;20769;-76
2021/10/30 05:09:16;;;;;;;41.70;15.20;;;;;;;5.82;83.83;99518.22;5038588;28;20494;-77
2021/10/30 05:11:41;;;;;;;32.77;15.37;;;;;;;5.81;83.31;99505.84;5035118;28;20411;-77
2021/10/30 05:14:06;;;;;;;17.27;15.40;;;;;;;5.82;83.30;99515.53;5031642;28;20417;-77
2021/10/30 05:16:32;;;;;;;16.97;15.00;;;;;;;5.81;83.29;99525.47;5040551;28;20416;-77
2021/10/30 05:18:57;;;;;;;21.90;16.30;;;;;;;5.82;83.31;99526.31;5040806;28;20411;-77
2021/10/30 05:21:22;;;;;;;19.43;16.37;;;;;;;5.84;83.57;99521.50;5024373;28;20894;-77
2021/10/30 05:23:48;;;;;;;21.70;16.33;;;;;;;5.86;82.97;99514.06;5049684;28;20417;-77
2021/10/30 05:26:13;;;;;;;23.48;17.70;;;;;;;5.86;83.11;99506.78;5037375;28;20540;-76
2021/10/30 05:28:38;;;;;;;22.27;17.40;;;;;;;5.89;83.56;99508.22;5042130;28;20461;-77
2021/10/30 05:31:03;;;;;;;19.47;16.40;;;;;;;5.93;83.38;99504.00;5015528;28;20413;-77
2021/10/30 05:33:29;;;;;;;20.13;16.87;;;;;;;5.95;82.96;99500.00;5031724;28;20850;-77
2021/10/30 05:35:54;;;;;;;18.73;16.70;;;;;;;5.99;83.22;99500.34;5031145;28;20411;-77
2021/10/30 05:38:20;;;;;;;18.23;15.97;;;;;;;6.01;83.40;99496.34;5029615;28;20429;-77
2021/10/30 05:40:46;;;;;;;16.77;14.60;;;;;;;6.06;83.30;99492.97;5029880;28;20416;-76
2021/10/30 05:43:12;;;;;;;16.48;14.70;;;;;;;6.06;83.11;99488.38;5031998;28;20423;-77
2021/10/30 05:45:38;;;;;;;19.23;16.35;;;;;;;6.09;83.39;99477.13;5036756;28;20475;-77
2021/10/30 05:48:05;;;;;;;19.40;15.98;;;;;;;6.12;83.06;99468.63;5033479;28;20415;-77
2021/10/30 05:50:32;;;;;;;17.80;16.00;;;;;;;6.16;82.93;99450.09;5034501;28;20957;-77
2021/10/30 05:52:57;;;;;;;17.30;15.32;;;;;;;6.14;82.60;99444.97;5033200;28;20411;-77
2021/10/30 05:55:23;;;;;;;16.83;15.03;;;;;;;6.16;82.57;99439.34;5013736;28;20422;-77
2021/10/30 05:57:48;;;;;;;16.93;15.17;;;;;;;6.18;83.27;99427.28;5041559;28;20427;-77
2021/10/30 06:00:14;;;;;;;17.03;15.33;;;;;;;6.21;83.01;99415.22;5035350;28;20418;-77
2021/10/30 06:02:39;;;;;;;17.42;15.55;;;;;;;6.24;82.68;99403.97;5029522;28;20407;-77
2021/10/30 06:05:05;;;;;;;20.20;17.90;;;;;;;6.24;83.00;99390.53;5049661;28;20818;-77
2021/10/30 06:07:31;;;;;;;22.85;17.02;;;;;;;6.24;82.78;99399.41;5032537;28;20394;-77
2021/10/30 06:09:56;;;;;;;21.67;16.87;;;;;;;6.26;83.00;99389.22;5030098;28;20411;-77
2021/10/30 06:12:21;;;;;;;19.07;16.17;;;;;;;6.29;83.22;99382.53;5017254;28;20512;-76
2021/10/30 06:14:46;;;;;;;19.20;16.50;;;;;;;6.33;83.47;99390.94;5030271;28;20442;-77
2021/10/30 06:17:12;;;;;;;21.20;16.03;;;;;;;6.35;82.91;99405.81;5030161;28;20410;-77
2021/10/30 06:19:37;;;;;;;21.47;16.80;;;;;;;6.37;83.20;99410.94;5013047;28;20418;-77
2021/10/30 06:22:02;;;;;;;28.23;21.30;;;;;;;6.37;82.53;99414.44;5030068;28;20414;-77
2021/10/30 06:24:28;;;;;;;24.30;18.80;;;;;;;6.38;83.00;99417.94;5029168;28;20468;-77
2021/10/30 06:26:53;;;;;;;22.93;17.67;;;;;;;6.38;83.16;99426.03;5041591;28;20403;-77
2021/10/30 06:29:18;;;;;;;19.17;15.80;;;;;;;6.41;82.99;99428.22;5029604;28;20857;-77
2021/10/30 06:31:44;;;;;;;20.83;15.83;;;;;;;6.40;82.93;99413.13;5035568;28;20413;-76
2021/10/30 06:34:10;;;;;;;17.40;15.30;;;;;;;6.38;82.81;99413.38;5042830;28;20416;-76
2021/10/30 06:36:35;;;;;;;16.63;14.88;;;;;;;6.38;82.95;99413.38;5021646;28;20424;-77
2021/10/30 06:39:00;;;;;;;20.93;16.23;;;;;;;6.41;82.82;99414.78;5036713;28;20423;-76
2021/10/30 06:41:26;;;;;;;20.40;16.10;;;;;;;6.45;82.67;99414.06;5038108;28;20412;-76
2021/10/30 06:43:51;;;;;;;19.43;16.13;;;;;;;6.51;83.06;99413.06;5035327;28;20419;-76
2021/10/30 06:46:16;;;;;;;21.00;16.20;;;;;;;6.56;82.75;99410.44;5040848;28;20817;-76
2021/10/30 06:48:41;;;;;;;21.10;15.73;;;;;;;6.61;82.30;99410.56;5030067;28;20407;-76
2021/10/30 06:51:09;;;;;;;16.83;15.03;;;;;;;6.68;82.88;99396.94;5038154;28;20428;-76
2021/10/30 06:53:34;;;;;;;20.55;16.33;;;;;;;6.74;82.12;99398.63;5032823;28;20412;-77
2021/10/30 06:56:00;;;;;;;19.33;15.37;;;;;;;6.78;82.26;99405.97;5016180;28;20413;-76
2021/10/30 06:58:28;;;;;;;21.03;15.30;;;;;;;6.86;82.23;99412.81;5034685;28;20424;-77
2021/10/30 07:00:53;;;;;;;19.97;15.67;;;;;;;6.90;82.26;99413.97;5032236;28;20938;-77
2021/10/30 07:03:19;;;;;;;21.40;15.73;;;;;;;6.95;82.23;99391.69;5036330;28;20491;-76
2021/10/30 07:05:44;;;;;;;16.77;15.03;;;;;;;6.96;81.88;99393.28;5032621;28;20387;-76
2021/10/30 07:08:09;;;;;;;19.37;16.40;;;;;;;6.95;81.97;99415.94;5027036;28;20413;-77
2021/10/30 07:10:34;;;;;;;18.10;15.17;;;;;;;6.93;81.99;99432.31;5030482;28;20465;-77
2021/10/30 07:13:00;;;;;;;18.43;15.90;;;;;;;6.88;81.87;99431.44;5013811;28;20418;-78
2021/10/30 07:15:25;;;;;;;24.67;17.13;;;;;;;6.85;81.75;99429.22;5035736;28;20442;-77
2021/10/30 07:17:50;;;;;;;19.23;15.15;;;;;;;6.84;82.04;99435.66;5045765;28;20919;-77
2021/10/30 07:20:16;;;;;;;18.90;14.23;;;;;;;6.80;82.00;99443.44;5041310;28;20424;-77
2021/10/30 07:22:46;;;;;;;19.20;15.17;;;;;;;6.78;82.41;99434.78;5029609;28;20443;-77
2021/10/30 07:25:12;;;;;;;16.75;15.02;;;;;;;6.79;82.10;99433.72;5034958;28;20468;-78
2021/10/30 07:27:38;;;;;;;21.85;17.48;;;;;;;6.76;81.71;99444.97;5014350;28;20476;-77
2021/10/30 07:30:07;;;;;;;19.87;16.80;;;;;;;6.80;82.06;99446.13;5034649;28;20423;-77
2021/10/30 07:32:33;;;;;;;18.23;15.90;;;;;;;6.81;82.11;99446.94;5014055;28;20429;-77
2021/10/30 07:34:58;;;;;;;19.70;16.63;;;;;;;6.81;82.18;99466.59;5028917;28;20460;-76
2021/10/30 07:37:23;;;;;;;18.80;15.37;;;;;;;6.85;82.25;99465.03;5032993;28;20413;-77
2021/10/30 07:39:49;;;;;;;18.65;14.60;;;;;;;6.84;81.97;99471.50;5015649;28;20427;-77
2021/10/30 07:42:15;;;;;;;17.25;14.82;;;;;;;6.84;81.25;99479.59;5016312;28;20438;-77
2021/10/30 07:44:40;;;;;;;18.05;15.43;;;;;;;6.80;81.88;99483.81;5033096;28;20449;-76
2021/10/30 07:47:06;;;;;;;17.85;15.15;;;;;;;6.79;82.16;99482.16;5031082;28;20440;-76
2021/10/30 07:49:31;;;;;;;15.77;14.13;;;;;;;6.82;82.54;99486.28;5037758;28;20411;-77
2021/10/30 07:51:56;;;;;;;16.80;15.07;;;;;;;6.83;82.26;99496.78;5039975;28;20484;-77
2021/10/30 07:54:22;;;;;;;17.80;15.20;;;;;;;6.78;82.17;99512.88;5043830;28;20401;-77
2021/10/30 07:56:47;;;;;;;20.07;16.87;;;;;;;6.75;82.45;99534.91;5042900;28;20435;-77
2021/10/30 07:59:12;;;;;;;17.67;14.57;;;;;;;6.68;82.35;99553.09;5029071;28;20545;-77
2021/10/30 08:01:38;;;;;;;20.23;14.97;;;;;;;6.67;83.20;99546.88;5046907;28;20407;-76
2021/10/30 08:04:04;;;;;;;18.17;15.57;;;;;;;6.75;82.56;99551.06;5033544;28;20415;-77
2021/10/30 08:06:29;;;;;;;17.77;15.30;;;;;;;6.79;82.03;99550.31;5034296;28;20964;-77
2021/10/30 08:08:54;;;;;;;18.37;15.53;;;;;;;6.84;82.41;99538.81;5049034;28;20429;-77
2021/10/30 08:11:20;;;;;;;19.02;15.25;;;;;;;6.92;82.04;99545.66;5050624;28;20464;-77
2021/10/30 08:13:45;;;;;;;17.03;15.00;;;;;;;6.96;82.01;99542.25;5050357;28;20861;-77
2021/10/30 08:16:10;;;;;;;16.97;14.97;;;;;;;7.00;81.88;99550.69;5034938;28;20407;-77
2021/10/30 08:18:35;;;;;;;16.63;14.10;;;;;;;7.02;81.52;99541.28;5026401;28;20490;-77
2021/10/30 08:21:02;;;;;;;17.30;14.00;;;;;;;7.05;81.00;99535.41;5027741;28;20406;-77
2021/10/30 08:23:27;;;;;;;17.58;14.77;;;;;;;7.05;81.35;99526.50;5052655;28;20409;-77
2021/10/30 08:25:52;;;;;;;15.67;14.10;;;;;;;7.06;81.04;99520.88;5030669;28;20900;-77
2021/10/30 08:28:18;;;;;;;16.83;14.53;;;;;;;7.08;81.56;99534.91;5048496;28;20421;-77
2021/10/30 08:30:44;;;;;;;28.35;14.38;;;;;;;7.10;81.60;99537.38;5048188;28;20541;-77
2021/10/30 08:33:13;;;;;;;22.17;13.65;;;;;;;7.15;80.97;99542.84;5040444;28;20505;-77
2021/10/30 08:35:40;;;;;;;16.00;14.20;;;;;;;7.16;80.96;99531.81;5046013;28;20535;-77
2021/10/30 08:38:09;;;;;;;16.08;13.82;;;;;;;7.14;80.76;99542.03;5016312;28;20426;-77
2021/10/30 08:40:36;;;;;;;16.40;13.93;;;;;;;7.14;81.12;99542.03;5045349;28;20426;-77
2021/10/30 08:43:01;;;;;;;15.50;13.85;;;;;;;7.17;80.99;99538.84;5033368;28;20415;-77
2021/10/30 08:45:32;;;;;;;15.05;13.50;;;;;;;7.19;80.92;99525.94;5046890;28;20401;-77
2021/10/30 08:48:08;;;;;;;15.50;13.77;;;;;;;7.22;80.84;99532.72;5023148;28;20414;-77
2021/10/30 08:50:34;;;;;;;23.00;15.30;;;;;;;7.20;80.56;99524.88;5039188;28;20388;-77
2021/10/30 08:53:00;;;;;;;14.45;12.95;;;;;;;7.24;81.05;99517.13;5047404;28;20904;-77
2021/10/30 08:55:26;;;;;;;15.48;13.77;;;;;;;7.28;80.89;99504.78;5021664;28;20415;-76
2021/10/30 08:57:53;;;;;;;19.40;14.05;;;;;;;7.32;80.78;99500.53;5039617;28;20507;-76
2021/10/30 09:00:25;;;;;;;15.75;13.05;;;;;;;7.36;80.70;99503.56;5018000;28;20402;-76
2021/10/30 09:03:00;;;;;;;15.18;13.57;;;;;;;7.36;80.51;99498.97;5045491;28;20395;-75
2021/10/30 09:05:27;;;;;;;15.75;13.90;;;;;;;7.38;80.70;99506.81;5052328;28;20797;-77
2021/10/30 09:07:57;;;;;;;15.77;14.05;;;;;;;7.40;79.84;99519.00;5037361;28;20519;-76
2021/10/30 09:10:26;;;;;;;18.53;13.80;;;;;;;7.46;80.22;99526.09;5045428;28;20399;-76
2021/10/30 09:12:54;;;;;;;17.35;13.07;;;;;;;7.47;80.41;99516.94;5040407;28;20413;-77
2021/10/30 09:15:36;;;;;;;15.02;13.43;;;;;;;7.48;80.03;99523.13;5039271;28;20481;-77
2021/10/30 09:18:04;;;;;;;15.05;13.20;;;;;;;7.47;80.61;99525.03;5036720;28;20462;-76
2021/10/30 09:20:30;;;;;;;15.52;13.77;;;;;;;7.49;80.47;99525.59;5043492;28;20424;-76
2021/10/30 09:22:56;;;;;;;24.85;13.80;;;;;;;7.50;80.02;99518.31;5039183;28;20437;-77
2021/10/30 09:25:21;;;;;;;16.43;13.83;;;;;;;7.49;80.77;99520.19;5038420;28;20807;-77
2021/10/30 09:28:01;;;;;;;15.85;14.15;;;;;;;7.45;80.51;99513.66;5039882;28;20497;-77
2021/10/30 09:30:35;;;;;;;15.43;13.82;;;;;;;7.44;80.64;99508.53;5035964;28;20809;-77
2021/10/30 09:33:03;;;;;;;17.10;13.45;;;;;;;7.43;80.53;99514.97;5035878;28;20417;-77
2021/10/30 09:35:32;;;;;;;23.27;16.95;;;;;;;7.43;80.47;99523.06;5052946;28;20407;-77
2021/10/30 09:37:58;;;;;;;18.50;15.57;;;;;;;7.42;80.90;99519.56;5031558;28;20418;-77
2021/10/30 09:40:27;;;;;;;19.73;14.93;;;;;;;7.44;80.81;99519.31;5035874;28;20502;-77
2021/10/30 09:43:14;;;;;;;16.65;14.85;;;;;;;7.45;80.89;99535.22;5030952;28;20391;-77
2021/10/30 09:45:50;;;;;;;19.95;15.02;;;;;;;7.46;80.98;99522.56;5029999;28;20765;-77
2021/10/30 09:48:21;;;;;;;16.80;13.93;;;;;;;7.46;80.49;99542.25;5047271;28;20397;-77
2021/10/30 09:50:53;;;;;;;16.83;15.03;;;;;;;7.49;80.57;99541.78;5041809;28;20445;-77
2021/10/30 09:53:25;;;;;;;18.33;15.45;;;;;;;7.53;80.79;99548.31;5042801;28;20411;-77
2021/10/30 09:56:00;;;;;;;18.95;15.77;;;;;;;7.55;81.61;99550.75;5039869;28;20414;-77
2021/10/30 09:58:30;;;;;;;19.25;14.60;;;;;;;7.56;80.91;99537.03;5034838;28;20439;-77
2021/10/30 10:00:59;;;;;;;18.88;15.32;;;;;;;7.52;81.07;99486.53;5033836;28;20407;-77
2021/10/30 10:03:26;;;;;;;20.05;16.38;;;;;;;7.45;81.82;99457.06;5034170;28;20403;-77
2021/10/30 10:05:54;;;;;;;20.17;17.65;;;;;;;7.44;82.23;99501.28;5041136;28;20826;-77
2021/10/30 10:08:19;;;;;;;21.40;16.40;;;;;;;7.49;82.54;99505.91;5039217;28;20421;-77
2021/10/30 10:10:45;;;;;;;21.33;17.13;;;;;;;7.55;82.61;99511.13;5033993;28;20806;-76
2021/10/30 10:13:10;;;;;;;18.50;16.13;;;;;;;7.58;82.72;99523.28;5016397;28;20387;-77
2021/10/30 10:15:39;;;;;;;20.17;17.10;;;;;;;7.55;82.63;99545.34;5045194;28;20397;-77
2021/10/30 10:18:05;;;;;;;18.48;16.08;;;;;;;7.56;82.16;99533.50;5015992;28;20414;-77
2021/10/30 10:20:31;;;;;;;18.45;16.55;;;;;;;7.59;82.39;99519.53;5041738;28;20868;-77
2021/10/30 10:22:56;;;;;;;68.28;55.63;;;;;;;7.62;82.25;99514.47;5053561;28;20925;-76
2021/10/30 10:25:34;;;;;;;25.45;22.25;;;;;;;7.65;82.72;99516.66;5037999;28;20421;-76
2021/10/30 10:28:36;;;;;;;18.70;15.67;;;;;;;7.61;82.45;99520.91;5031546;28;20905;-77
2021/10/30 10:31:20;;;;;;;21.58;17.77;;;;;;;7.69;82.30;99523.19;5034604;28;20430;-77
2021/10/30 10:34:05;;;;;;;23.10;17.67;;;;;;;7.67;82.36;99543.38;5045285;28;20413;-77
2021/10/30 10:36:31;;;;;;;19.52;17.25;;;;;;;7.67;82.07;99535.28;5030164;28;20419;-77
2021/10/30 10:39:07;;;;;;;23.63;18.53;;;;;;;7.69;82.50;99554.72;5025962;28;20472;-76
2021/10/30 10:41:38;;;;;;;26.65;19.00;;;;;;;7.67;82.27;99538.78;5033838;28;20411;-76
2021/10/30 10:44:08;;;;;;;19.23;17.17;;;;;;;7.69;82.19;99552.84;5032500;28;20769;-76
2021/10/30 10:46:41;;;;;;;19.67;17.67;;;;;;;7.67;83.00;99529.91;5034769;28;20405;-77
2021/10/30 10:49:49;;;;;;;21.00;17.07;;;;;;;7.71;82.86;99523.75;5031311;28;20548;-77
2021/10/30 10:52:30;;;;;;;20.63;17.10;;;;;;;7.76;82.75;99542.72;5029429;28;20953;-77
2021/10/30 10:54:55;;;;;;;20.45;17.80;;;;;;;7.78;82.42;99526.25;5032274;28;20440;-76
2021/10/30 10:57:29;;;;;;;20.67;18.40;;;;;;;7.72;83.10;99500.28;5028680;28;20837;-77
2021/10/30 11:00:12;;;;;;;20.17;18.07;;;;;;;7.69;83.38;99487.31;5037932;28;20897;-77
2021/10/30 11:02:39;;;;;;;24.13;19.63;;;;;;;7.72;83.29;99490.31;5030639;28;20406;-76
2021/10/30 11:05:08;;;;;;;26.00;21.05;;;;;;;7.78;83.71;99475.03;5030288;28;20413;-76
2021/10/30 11:07:41;;;;;;;25.30;19.70;;;;;;;7.82;83.59;99476.97;5026337;28;20414;-77
2021/10/30 11:10:08;;;;;;;26.25;20.25;;;;;;;7.81;83.83;99455.63;5027479;28;20506;-76
2021/10/30 11:12:34;;;;;;;23.15;19.73;;;;;;;7.81;84.01;99467.25;5005812;28;20410;-76
2021/10/30 11:15:11;;;;;;;23.15;20.20;;;;;;;7.86;83.80;99458.41;5037471;28;20407;-76
2021/10/30 11:17:46;;;;;;;21.93;17.00;;;;;;;7.91;83.47;99449.53;5036876;28;20413;-76
2021/10/30 11:20:14;;;;;;;20.95;18.13;;;;;;;7.96;83.01;99461.22;5014680;28;20410;-75
2021/10/30 11:23:01;;;;;;;18.92;16.48;;;;;;;8.02;82.83;99459.41;5024919;28;20414;-76
2021/10/30 11:25:31;;;;;;;19.55;17.27;;;;;;;8.07;82.42;99467.53;5045647;28;20410;-76
2021/10/30 11:27:58;;;;;;;21.08;16.80;;;;;;;8.08;82.26;99475.41;5011764;28;20537;-76
2021/10/30 11:30:40;;;;;;;20.97;16.63;;;;;;;8.09;82.67;99468.94;5025228;28;20968;-76